Terminal Aerodrome Forecast
Issued by NWS Mt. Holly, NJ

Home | Current Version | Previous Version | Text Only | Print | Product List | Glossary On
Versions: 1 2 3 4 5 6 7 8 9 10 11 12 13 14 15 16 17
000
FTUS41 KPHI 252300
TAFACY
TAF
KACY 252321Z 2600/2624 21005KT P6SM FEW070
     FM260600 27005KT P6SM SKC
     FM261400 30018G28KT P6SM FEW050
     FM262300 31010KT P6SM SKC=

USA.gov is the U.S. government's official web portal to all federal, state and local government web resources and services.